sensor_id;sensor_type;location;lat;lon;timestamp;P1;durP1;ratioP1;P2;durP2;ratioP2
17886;SDS011;9069;52.044;7.472;2022-09-02T00:01:11;2.08;;;0.40;;
17886;SDS011;9069;52.044;7.472;2022-09-02T00:03:41;0.40;;;0.40;;
17886;SDS011;9069;52.044;7.472;2022-09-02T00:06:09;1.52;;;0.50;;
17886;SDS011;9069;52.044;7.472;2022-09-02T00:08:36;0.40;;;0.40;;
17886;SDS011;9069;52.044;7.472;2022-09-02T00:11:03;1.83;;;0.50;;
17886;SDS011;9069;52.044;7.472;2022-09-02T00:13:32;1.05;;;0.63;;
17886;SDS011;9069;52.044;7.472;2022-09-02T00:16:00;2.53;;;0.47;;
17886;SDS011;9069;52.044;7.472;2022-09-02T00:18:28;1.20;;;0.60;;
17886;SDS011;9069;52.044;7.472;2022-09-02T00:20:55;1.85;;;0.40;;
17886;SDS011;9069;52.044;7.472;2022-09-02T00:23:22;0.98;;;0.47;;
17886;SDS011;9069;52.044;7.472;2022-09-02T00:25:52;0.82;;;0.38;;
17886;SDS011;9069;52.044;7.472;2022-09-02T00:28:19;5.93;;;0.43;;
17886;SDS011;9069;52.044;7.472;2022-09-02T00:30:46;2.50;;;0.50;;
17886;SDS011;9069;52.044;7.472;2022-09-02T00:33:14;0.38;;;0.38;;
17886;SDS011;9069;52.044;7.472;2022-09-02T00:35:42;1.65;;;0.45;;
17886;SDS011;9069;52.044;7.472;2022-09-02T00:38:09;0.75;;;0.55;;
17886;SDS011;9069;52.044;7.472;2022-09-02T00:40:36;0.90;;;0.45;;
17886;SDS011;9069;52.044;7.472;2022-09-02T00:43:05;0.40;;;0.40;;
17886;SDS011;9069;52.044;7.472;2022-09-02T00:45:34;0.73;;;0.50;;
17886;SDS011;9069;52.044;7.472;2022-09-02T00:48:04;2.50;;;0.63;;
17886;SDS011;9069;52.044;7.472;2022-09-02T00:50:32;0.68;;;0.57;;
17886;SDS011;9069;52.044;7.472;2022-09-02T00:53:05;0.98;;;0.40;;
17886;SDS011;9069;52.044;7.472;2022-09-02T00:55:37;0.57;;;0.50;;
17886;SDS011;9069;52.044;7.472;2022-09-02T00:58:43;0.75;;;0.50;;
17886;SDS011;9069;52.044;7.472;2022-09-02T01:01:03;0.65;;;0.40;;
17886;SDS011;9069;52.044;7.472;2022-09-02T01:03:31;1.05;;;0.60;;
17886;SDS011;9069;52.044;7.472;2022-09-02T01:05:58;0.50;;;0.50;;
17886;SDS011;9069;52.044;7.472;2022-09-02T01:08:28;2.63;;;0.68;;
17886;SDS011;9069;52.044;7.472;2022-09-02T01:11:00;0.30;;;0.30;;
17886;SDS011;9069;52.044;7.472;2022-09-02T01:13:34;1.23;;;0.40;;
17886;SDS011;9069;52.044;7.472;2022-09-02T01:18:46;0.40;;;0.40;;
17886;SDS011;9069;52.044;7.472;2022-09-02T01:21:15;1.48;;;0.50;;
17886;SDS011;9069;52.044;7.472;2022-09-02T01:23:42;2.17;;;0.50;;
17886;SDS011;9069;52.044;7.472;2022-09-02T01:26:11;2.03;;;0.40;;
17886;SDS011;9069;52.044;7.472;2022-09-02T01:28:38;0.73;;;0.55;;
17886;SDS011;9069;52.044;7.472;2022-09-02T01:31:05;3.40;;;0.60;;
17886;SDS011;9069;52.044;7.472;2022-09-02T01:33:33;2.63;;;0.90;;
17886;SDS011;9069;52.044;7.472;2022-09-02T01:36:00;4.53;;;0.63;;
17886;SDS011;9069;52.044;7.472;2022-09-02T01:38:29;1.58;;;0.65;;
17886;SDS011;9069;52.044;7.472;2022-09-02T01:40:57;1.17;;;0.60;;
17886;SDS011;9069;52.044;7.472;2022-09-02T01:43:26;4.45;;;0.60;;
17886;SDS011;9069;52.044;7.472;2022-09-02T01:45:54;1.42;;;0.52;;
17886;SDS011;9069;52.044;7.472;2022-09-02T01:48:25;0.50;;;0.50;;
17886;SDS011;9069;52.044;7.472;2022-09-02T01:50:57;2.92;;;0.65;;
17886;SDS011;9069;52.044;7.472;2022-09-02T01:53:27;0.60;;;0.60;;
17886;SDS011;9069;52.044;7.472;2022-09-02T01:55:56;0.57;;;0.50;;
17886;SDS011;9069;52.044;7.472;2022-09-02T01:58:23;2.13;;;0.50;;
17886;SDS011;9069;52.044;7.472;2022-09-02T02:00:50;1.00;;;0.50;;
17886;SDS011;9069;52.044;7.472;2022-09-02T02:03:18;4.25;;;0.70;;
17886;SDS011;9069;52.044;7.472;2022-09-02T02:05:45;0.68;;;0.40;;
17886;SDS011;9069;52.044;7.472;2022-09-02T02:08:15;1.50;;;0.70;;
17886;SDS011;9069;52.044;7.472;2022-09-02T02:10:42;0.30;;;0.30;;
17886;SDS011;9069;52.044;7.472;2022-09-02T02:13:11;1.10;;;0.80;;
17886;SDS011;9069;52.044;7.472;2022-09-02T02:15:39;1.55;;;0.50;;
17886;SDS011;9069;52.044;7.472;2022-09-02T02:18:09;1.20;;;0.40;;
17886;SDS011;9069;52.044;7.472;2022-09-02T02:20:36;4.22;;;0.40;;
17886;SDS011;9069;52.044;7.472;2022-09-02T02:23:04;1.13;;;0.40;;
17886;SDS011;9069;52.044;7.472;2022-09-02T02:25:32;2.40;;;0.63;;
17886;SDS011;9069;52.044;7.472;2022-09-02T02:27:59;0.73;;;0.50;;
17886;SDS011;9069;52.044;7.472;2022-09-02T02:30:28;0.68;;;0.60;;
17886;SDS011;9069;52.044;7.472;2022-09-02T02:32:56;0.90;;;0.57;;
17886;SDS011;9069;52.044;7.472;2022-09-02T02:35:24;1.02;;;0.50;;
17886;SDS011;9069;52.044;7.472;2022-09-02T02:37:52;0.40;;;0.40;;
17886;SDS011;9069;52.044;7.472;2022-09-02T02:40:20;1.00;;;0.35;;
17886;SDS011;9069;52.044;7.472;2022-09-02T02:42:49;1.33;;;0.82;;
17886;SDS011;9069;52.044;7.472;2022-09-02T02:45:23;1.10;;;0.52;;
17886;SDS011;9069;52.044;7.472;2022-09-02T02:47:51;0.40;;;0.40;;
17886;SDS011;9069;52.044;7.472;2022-09-02T02:50:20;0.50;;;0.40;;
17886;SDS011;9069;52.044;7.472;2022-09-02T02:52:48;0.70;;;0.60;;
17886;SDS011;9069;52.044;7.472;2022-09-02T02:55:16;0.63;;;0.50;;
17886;SDS011;9069;52.044;7.472;2022-09-02T02:57:43;0.68;;;0.40;;
17886;SDS011;9069;52.044;7.472;2022-09-02T03:00:14;1.60;;;0.40;;
17886;SDS011;9069;52.044;7.472;2022-09-02T03:02:45;0.63;;;0.40;;
17886;SDS011;9069;52.044;7.472;2022-09-02T03:05:14;1.00;;;0.50;;
17886;SDS011;9069;52.044;7.472;2022-09-02T03:07:41;0.70;;;0.32;;
17886;SDS011;9069;52.044;7.472;2022-09-02T03:10:09;4.28;;;0.43;;
17886;SDS011;9069;52.044;7.472;2022-09-02T03:12:38;5.43;;;0.65;;
17886;SDS011;9069;52.044;7.472;2022-09-02T03:15:06;2.22;;;0.40;;
17886;SDS011;9069;52.044;7.472;2022-09-02T03:17:34;1.45;;;0.50;;
17886;SDS011;9069;52.044;7.472;2022-09-02T03:20:01;0.65;;;0.50;;
17886;SDS011;9069;52.044;7.472;2022-09-02T03:22:32;1.08;;;0.52;;
17886;SDS011;9069;52.044;7.472;2022-09-02T03:25:02;2.97;;;0.40;;
17886;SDS011;9069;52.044;7.472;2022-09-02T03:27:32;0.40;;;0.40;;
17886;SDS011;9069;52.044;7.472;2022-09-02T03:30:00;3.80;;;0.40;;
17886;SDS011;9069;52.044;7.472;2022-09-02T03:32:28;1.55;;;0.60;;
17886;SDS011;9069;52.044;7.472;2022-09-02T03:34:56;2.00;;;0.55;;
17886;SDS011;9069;52.044;7.472;2022-09-02T03:37:23;0.47;;;0.45;;
17886;SDS011;9069;52.044;7.472;2022-09-02T03:39:50;0.88;;;0.50;;
17886;SDS011;9069;52.044;7.472;2022-09-02T03:42:17;0.90;;;0.50;;
17886;SDS011;9069;52.044;7.472;2022-09-02T03:44:47;1.70;;;0.40;;
17886;SDS011;9069;52.044;7.472;2022-09-02T03:47:14;1.45;;;0.80;;
17886;SDS011;9069;52.044;7.472;2022-09-02T03:49:46;0.90;;;0.65;;
17886;SDS011;9069;52.044;7.472;2022-09-02T03:52:13;0.57;;;0.40;;
17886;SDS011;9069;52.044;7.472;2022-09-02T03:54:40;4.68;;;0.60;;
17886;SDS011;9069;52.044;7.472;2022-09-02T03:57:06;2.42;;;0.50;;
17886;SDS011;9069;52.044;7.472;2022-09-02T03:59:33;2.00;;;0.70;;
17886;SDS011;9069;52.044;7.472;2022-09-02T04:02:01;0.57;;;0.43;;
17886;SDS011;9069;52.044;7.472;2022-09-02T04:04:28;1.02;;;0.70;;
17886;SDS011;9069;52.044;7.472;2022-09-02T04:06:55;5.10;;;0.50;;
17886;SDS011;9069;52.044;7.472;2022-09-02T04:09:25;0.80;;;0.60;;
17886;SDS011;9069;52.044;7.472;2022-09-02T04:11:52;2.90;;;0.45;;
17886;SDS011;9069;52.044;7.472;2022-09-02T04:14:19;0.70;;;0.50;;
17886;SDS011;9069;52.044;7.472;2022-09-02T04:16:46;1.45;;;0.70;;
17886;SDS011;9069;52.044;7.472;2022-09-02T04:19:13;0.85;;;0.40;;
17886;SDS011;9069;52.044;7.472;2022-09-02T04:21:40;0.75;;;0.30;;
17886;SDS011;9069;52.044;7.472;2022-09-02T04:24:09;0.63;;;0.43;;
17886;SDS011;9069;52.044;7.472;2022-09-02T04:26:40;0.98;;;0.60;;
17886;SDS011;9069;52.044;7.472;2022-09-02T04:29:11;0.88;;;0.65;;
17886;SDS011;9069;52.044;7.472;2022-09-02T04:31:39;0.63;;;0.63;;
17886;SDS011;9069;52.044;7.472;2022-09-02T04:34:06;1.02;;;0.60;;
17886;SDS011;9069;52.044;7.472;2022-09-02T04:36:33;0.93;;;0.40;;
17886;SDS011;9069;52.044;7.472;2022-09-02T04:39:04;0.57;;;0.47;;
17886;SDS011;9069;52.044;7.472;2022-09-02T04:41:32;0.50;;;0.40;;
17886;SDS011;9069;52.044;7.472;2022-09-02T04:44:04;0.40;;;0.40;;
17886;SDS011;9069;52.044;7.472;2022-09-02T04:46:35;2.20;;;0.70;;
17886;SDS011;9069;52.044;7.472;2022-09-02T04:49:06;0.82;;;0.70;;
17886;SDS011;9069;52.044;7.472;2022-09-02T04:51:36;3.30;;;0.60;;
17886;SDS011;9069;52.044;7.472;2022-09-02T04:54:04;3.97;;;0.60;;
17886;SDS011;9069;52.044;7.472;2022-09-02T04:56:31;1.02;;;0.40;;
17886;SDS011;9069;52.044;7.472;2022-09-02T04:59:00;1.45;;;0.60;;
17886;SDS011;9069;52.044;7.472;2022-09-02T05:01:30;1.10;;;0.77;;
17886;SDS011;9069;52.044;7.472;2022-09-02T05:04:06;1.05;;;0.45;;
17886;SDS011;9069;52.044;7.472;2022-09-02T05:06:38;2.30;;;0.70;;
17886;SDS011;9069;52.044;7.472;2022-09-02T05:09:13;6.13;;;0.98;;
17886;SDS011;9069;52.044;7.472;2022-09-02T05:11:40;4.32;;;0.77;;
17886;SDS011;9069;52.044;7.472;2022-09-02T05:14:08;0.77;;;0.52;;
17886;SDS011;9069;52.044;7.472;2022-09-02T05:16:37;3.30;;;0.63;;
17886;SDS011;9069;52.044;7.472;2022-09-02T05:19:09;1.25;;;0.60;;
17886;SDS011;9069;52.044;7.472;2022-09-02T05:21:42;2.15;;;0.75;;
17886;SDS011;9069;52.044;7.472;2022-09-02T05:24:14;3.22;;;0.68;;
17886;SDS011;9069;52.044;7.472;2022-09-02T05:26:41;0.82;;;0.50;;
17886;SDS011;9069;52.044;7.472;2022-09-02T05:29:11;0.82;;;0.65;;
17886;SDS011;9069;52.044;7.472;2022-09-02T05:31:40;1.67;;;0.50;;
17886;SDS011;9069;52.044;7.472;2022-09-02T05:34:11;0.70;;;0.50;;
17886;SDS011;9069;52.044;7.472;2022-09-02T05:36:39;3.33;;;0.90;;
17886;SDS011;9069;52.044;7.472;2022-09-02T05:39:06;1.13;;;0.57;;
17886;SDS011;9069;52.044;7.472;2022-09-02T05:41:33;2.20;;;0.65;;
17886;SDS011;9069;52.044;7.472;2022-09-02T05:44:02;2.20;;;0.60;;
17886;SDS011;9069;52.044;7.472;2022-09-02T05:46:33;1.00;;;0.50;;
17886;SDS011;9069;52.044;7.472;2022-09-02T05:49:02;1.95;;;0.57;;
17886;SDS011;9069;52.044;7.472;2022-09-02T05:51:42;4.72;;;0.52;;
17886;SDS011;9069;52.044;7.472;2022-09-02T05:54:15;1.55;;;0.60;;
17886;SDS011;9069;52.044;7.472;2022-09-02T05:56:46;3.15;;;0.80;;
17886;SDS011;9069;52.044;7.472;2022-09-02T05:59:14;2.65;;;0.70;;
17886;SDS011;9069;52.044;7.472;2022-09-02T06:01:42;1.45;;;0.70;;
17886;SDS011;9069;52.044;7.472;2022-09-02T06:04:09;3.15;;;0.80;;
17886;SDS011;9069;52.044;7.472;2022-09-02T06:06:37;0.75;;;0.50;;
17886;SDS011;9069;52.044;7.472;2022-09-02T06:09:07;1.33;;;0.65;;
17886;SDS011;9069;52.044;7.472;2022-09-02T06:11:36;1.52;;;1.02;;
17886;SDS011;9069;52.044;7.472;2022-09-02T06:14:08;1.83;;;0.80;;
17886;SDS011;9069;52.044;7.472;2022-09-02T06:16:37;4.10;;;0.80;;
17886;SDS011;9069;52.044;7.472;2022-09-02T06:19:09;0.70;;;0.70;;
17886;SDS011;9069;52.044;7.472;2022-09-02T06:21:39;1.48;;;0.70;;
17886;SDS011;9069;52.044;7.472;2022-09-02T06:24:08;0.75;;;0.60;;
17886;SDS011;9069;52.044;7.472;2022-09-02T06:26:36;1.88;;;0.77;;
17886;SDS011;9069;52.044;7.472;2022-09-02T06:29:05;4.30;;;1.00;;
17886;SDS011;9069;52.044;7.472;2022-09-02T06:31:34;1.90;;;0.90;;
17886;SDS011;9069;52.044;7.472;2022-09-02T06:34:02;1.83;;;0.70;;
17886;SDS011;9069;52.044;7.472;2022-09-02T06:36:30;0.63;;;0.55;;
17886;SDS011;9069;52.044;7.472;2022-09-02T06:38:59;9.90;;;0.75;;
17886;SDS011;9069;52.044;7.472;2022-09-02T06:41:30;1.27;;;0.90;;
17886;SDS011;9069;52.044;7.472;2022-09-02T06:44:03;3.75;;;0.80;;
17886;SDS011;9069;52.044;7.472;2022-09-02T06:46:39;1.20;;;0.80;;
17886;SDS011;9069;52.044;7.472;2022-09-02T06:49:13;1.90;;;0.80;;
17886;SDS011;9069;52.044;7.472;2022-09-02T06:51:45;1.75;;;1.10;;
17886;SDS011;9069;52.044;7.472;2022-09-02T06:54:14;0.82;;;0.57;;
17886;SDS011;9069;52.044;7.472;2022-09-02T06:56:44;2.88;;;0.70;;
17886;SDS011;9069;52.044;7.472;2022-09-02T06:59:17;2.88;;;1.08;;
17886;SDS011;9069;52.044;7.472;2022-09-02T07:01:55;6.07;;;0.90;;
17886;SDS011;9069;52.044;7.472;2022-09-02T07:04:24;2.22;;;0.77;;
17886;SDS011;9069;52.044;7.472;2022-09-02T07:07:13;2.75;;;0.90;;
17886;SDS011;9069;52.044;7.472;2022-09-02T07:09:48;3.10;;;0.75;;
17886;SDS011;9069;52.044;7.472;2022-09-02T07:12:16;2.05;;;0.80;;
17886;SDS011;9069;52.044;7.472;2022-09-02T07:14:52;3.33;;;0.73;;
17886;SDS011;9069;52.044;7.472;2022-09-02T07:17:25;1.20;;;0.80;;
17886;SDS011;9069;52.044;7.472;2022-09-02T07:19:57;1.48;;;0.63;;
17886;SDS011;9069;52.044;7.472;2022-09-02T07:22:28;1.23;;;0.70;;
17886;SDS011;9069;52.044;7.472;2022-09-02T07:24:55;4.07;;;0.90;;
17886;SDS011;9069;52.044;7.472;2022-09-02T07:27:24;1.15;;;0.88;;
17886;SDS011;9069;52.044;7.472;2022-09-02T07:29:53;4.07;;;0.80;;
17886;SDS011;9069;52.044;7.472;2022-09-02T07:32:21;1.27;;;0.80;;
17886;SDS011;9069;52.044;7.472;2022-09-02T07:34:48;4.47;;;1.13;;
17886;SDS011;9069;52.044;7.472;2022-09-02T07:37:15;2.38;;;0.82;;
17886;SDS011;9069;52.044;7.472;2022-09-02T07:39:43;0.70;;;0.68;;
17886;SDS011;9069;52.044;7.472;2022-09-02T07:42:12;3.80;;;0.73;;
17886;SDS011;9069;52.044;7.472;2022-09-02T07:44:40;2.90;;;1.05;;
17886;SDS011;9069;52.044;7.472;2022-09-02T07:47:07;2.50;;;0.80;;
17886;SDS011;9069;52.044;7.472;2022-09-02T07:49:37;0.82;;;0.80;;
17886;SDS011;9069;52.044;7.472;2022-09-02T07:52:25;5.28;;;0.90;;
17886;SDS011;9069;52.044;7.472;2022-09-02T07:54:53;1.42;;;0.98;;
17886;SDS011;9069;52.044;7.472;2022-09-02T07:57:20;3.83;;;0.68;;
17886;SDS011;9069;52.044;7.472;2022-09-02T07:59:46;2.40;;;0.80;;
17886;SDS011;9069;52.044;7.472;2022-09-02T08:02:14;5.00;;;0.88;;
17886;SDS011;9069;52.044;7.472;2022-09-02T08:04:43;1.35;;;0.82;;
17886;SDS011;9069;52.044;7.472;2022-09-02T08:07:10;1.27;;;0.70;;
17886;SDS011;9069;52.044;7.472;2022-09-02T08:09:37;1.13;;;0.70;;
17886;SDS011;9069;52.044;7.472;2022-09-02T08:12:04;4.97;;;0.90;;
17886;SDS011;9069;52.044;7.472;2022-09-02T08:14:31;0.93;;;0.80;;
17886;SDS011;9069;52.044;7.472;2022-09-02T08:16:58;4.80;;;1.00;;
17886;SDS011;9069;52.044;7.472;2022-09-02T08:19:25;1.23;;;0.75;;
17886;SDS011;9069;52.044;7.472;2022-09-02T08:21:52;1.65;;;0.77;;
17886;SDS011;9069;52.044;7.472;2022-09-02T08:24:20;1.67;;;0.68;;
17886;SDS011;9069;52.044;7.472;2022-09-02T08:26:47;2.72;;;0.80;;
17886;SDS011;9069;52.044;7.472;2022-09-02T08:29:13;1.25;;;0.80;;
17886;SDS011;9069;52.044;7.472;2022-09-02T08:31:40;3.67;;;0.85;;
17886;SDS011;9069;52.044;7.472;2022-09-02T08:34:07;2.75;;;0.80;;
17886;SDS011;9069;52.044;7.472;2022-09-02T08:36:34;4.05;;;1.08;;
17886;SDS011;9069;52.044;7.472;2022-09-02T08:39:02;2.75;;;0.95;;
17886;SDS011;9069;52.044;7.472;2022-09-02T08:41:36;2.72;;;0.90;;
17886;SDS011;9069;52.044;7.472;2022-09-02T08:44:29;7.85;;;0.93;;
17886;SDS011;9069;52.044;7.472;2022-09-02T08:47:00;7.25;;;1.33;;
17886;SDS011;9069;52.044;7.472;2022-09-02T08:49:49;3.53;;;1.00;;
17886;SDS011;9069;52.044;7.472;2022-09-02T08:52:23;3.47;;;0.80;;
17886;SDS011;9069;52.044;7.472;2022-09-02T08:55:04;3.08;;;1.10;;
17886;SDS011;9069;52.044;7.472;2022-09-02T08:57:35;4.80;;;1.20;;
17886;SDS011;9069;52.044;7.472;2022-09-02T09:00:09;1.30;;;0.85;;
17886;SDS011;9069;52.044;7.472;2022-09-02T09:05:48;2.22;;;1.00;;
17886;SDS011;9069;52.044;7.472;2022-09-02T09:13:59;4.03;;;0.93;;
17886;SDS011;9069;52.044;7.472;2022-09-02T09:16:47;1.83;;;0.90;;
17886;SDS011;9069;52.044;7.472;2022-09-02T09:19:38;3.53;;;1.05;;
17886;SDS011;9069;52.044;7.472;2022-09-02T09:22:09;6.35;;;0.80;;
17886;SDS011;9069;52.044;7.472;2022-09-02T09:24:42;3.08;;;1.00;;
17886;SDS011;9069;52.044;7.472;2022-09-02T09:27:28;3.97;;;1.00;;
17886;SDS011;9069;52.044;7.472;2022-09-02T09:29:55;2.92;;;0.90;;
17886;SDS011;9069;52.044;7.472;2022-09-02T09:32:29;2.63;;;1.20;;
17886;SDS011;9069;52.044;7.472;2022-09-02T09:35:00;2.78;;;0.90;;
17886;SDS011;9069;52.044;7.472;2022-09-02T09:45:48;1.90;;;0.80;;
17886;SDS011;9069;52.044;7.472;2022-09-02T09:53:26;2.42;;;1.00;;
17886;SDS011;9069;52.044;7.472;2022-09-02T10:03:40;2.25;;;1.00;;
17886;SDS011;9069;52.044;7.472;2022-09-02T10:06:20;3.03;;;0.80;;
17886;SDS011;9069;52.044;7.472;2022-09-02T10:09:03;1.88;;;1.00;;
17886;SDS011;9069;52.044;7.472;2022-09-02T10:11:39;1.00;;;0.85;;
17886;SDS011;9069;52.044;7.472;2022-09-02T10:14:33;2.30;;;0.90;;
17886;SDS011;9069;52.044;7.472;2022-09-02T10:17:18;3.33;;;1.05;;
17886;SDS011;9069;52.044;7.472;2022-09-02T10:20:11;5.25;;;0.95;;
17886;SDS011;9069;52.044;7.472;2022-09-02T10:26:21;4.20;;;0.88;;
17886;SDS011;9069;52.044;7.472;2022-09-02T10:35:20;1.45;;;0.82;;
17886;SDS011;9069;52.044;7.472;2022-09-02T10:41:05;1.10;;;0.70;;
17886;SDS011;9069;52.044;7.472;2022-09-02T10:46:25;2.45;;;0.90;;
17886;SDS011;9069;52.044;7.472;2022-09-02T10:49:16;1.52;;;0.93;;
17886;SDS011;9069;52.044;7.472;2022-09-02T10:52:02;2.15;;;0.90;;
17886;SDS011;9069;52.044;7.472;2022-09-02T10:57:17;1.88;;;0.95;;
17886;SDS011;9069;52.044;7.472;2022-09-02T11:02:39;2.13;;;0.90;;
17886;SDS011;9069;52.044;7.472;2022-09-02T11:05:24;2.72;;;0.93;;
17886;SDS011;9069;52.044;7.472;2022-09-02T11:07:59;3.13;;;0.95;;
17886;SDS011;9069;52.044;7.472;2022-09-02T11:10:36;2.55;;;1.00;;
17886;SDS011;9069;52.044;7.472;2022-09-02T11:13:08;0.95;;;0.85;;
17886;SDS011;9069;52.044;7.472;2022-09-02T11:18:59;4.70;;;1.20;;
17886;SDS011;9069;52.044;7.472;2022-09-02T11:21:34;1.58;;;0.93;;
17886;SDS011;9069;52.044;7.472;2022-09-02T11:26:45;1.55;;;1.10;;
17886;SDS011;9069;52.044;7.472;2022-09-02T11:29:35;1.17;;;0.75;;
17886;SDS011;9069;52.044;7.472;2022-09-02T11:32:17;4.68;;;1.08;;
17886;SDS011;9069;52.044;7.472;2022-09-02T11:34:51;1.38;;;1.10;;
17886;SDS011;9069;52.044;7.472;2022-09-02T11:37:26;3.65;;;1.15;;
17886;SDS011;9069;52.044;7.472;2022-09-02T11:39:59;1.30;;;1.02;;
17886;SDS011;9069;52.044;7.472;2022-09-02T11:45:34;2.78;;;1.00;;
17886;SDS011;9069;52.044;7.472;2022-09-02T11:53:36;2.55;;;0.80;;
17886;SDS011;9069;52.044;7.472;2022-09-02T11:58:45;4.45;;;0.80;;
17886;SDS011;9069;52.044;7.472;2022-09-02T12:03:44;0.93;;;0.88;;
17886;SDS011;9069;52.044;7.472;2022-09-02T12:09:50;1.38;;;0.82;;
17886;SDS011;9069;52.044;7.472;2022-09-02T12:23:09;1.30;;;0.80;;
17886;SDS011;9069;52.044;7.472;2022-09-02T12:26:14;1.40;;;1.08;;
17886;SDS011;9069;52.044;7.472;2022-09-02T12:28:42;3.88;;;1.15;;
17886;SDS011;9069;52.044;7.472;2022-09-02T12:31:14;9.90;;;1.70;;
17886;SDS011;9069;52.044;7.472;2022-09-02T12:36:53;1.48;;;0.93;;
17886;SDS011;9069;52.044;7.472;2022-09-02T12:50:16;3.83;;;0.90;;
17886;SDS011;9069;52.044;7.472;2022-09-02T12:52:51;1.15;;;0.80;;
17886;SDS011;9069;52.044;7.472;2022-09-02T12:55:33;1.35;;;1.00;;
17886;SDS011;9069;52.044;7.472;2022-09-02T12:58:11;1.10;;;1.02;;
17886;SDS011;9069;52.044;7.472;2022-09-02T13:15:27;0.77;;;0.70;;
17886;SDS011;9069;52.044;7.472;2022-09-02T13:21:10;1.40;;;0.85;;
17886;SDS011;9069;52.044;7.472;2022-09-02T13:27:09;2.80;;;0.90;;
17886;SDS011;9069;52.044;7.472;2022-09-02T13:32:44;2.03;;;0.82;;
17886;SDS011;9069;52.044;7.472;2022-09-02T13:35:25;4.25;;;0.88;;
17886;SDS011;9069;52.044;7.472;2022-09-02T13:37:54;1.77;;;0.90;;
17886;SDS011;9069;52.044;7.472;2022-09-02T13:40:31;1.77;;;1.00;;
17886;SDS011;9069;52.044;7.472;2022-09-02T13:43:08;1.55;;;1.00;;
17886;SDS011;9069;52.044;7.472;2022-09-02T13:45:43;1.23;;;0.88;;
17886;SDS011;9069;52.044;7.472;2022-09-02T13:50:44;3.60;;;0.90;;
17886;SDS011;9069;52.044;7.472;2022-09-02T13:53:20;0.75;;;0.73;;
17886;SDS011;9069;52.044;7.472;2022-09-02T13:56:12;1.52;;;0.80;;
17886;SDS011;9069;52.044;7.472;2022-09-02T13:58:44;1.65;;;0.93;;
17886;SDS011;9069;52.044;7.472;2022-09-02T14:01:18;2.22;;;0.90;;
17886;SDS011;9069;52.044;7.472;2022-09-02T14:04:01;0.88;;;0.85;;
17886;SDS011;9069;52.044;7.472;2022-09-02T14:06:33;1.20;;;0.80;;
17886;SDS011;9069;52.044;7.472;2022-09-02T14:09:03;1.38;;;1.05;;
17886;SDS011;9069;52.044;7.472;2022-09-02T14:11:39;1.77;;;0.98;;
17886;SDS011;9069;52.044;7.472;2022-09-02T14:14:08;1.55;;;0.90;;
17886;SDS011;9069;52.044;7.472;2022-09-02T14:16:43;3.95;;;1.13;;
17886;SDS011;9069;52.044;7.472;2022-09-02T14:21:44;0.82;;;0.80;;
17886;SDS011;9069;52.044;7.472;2022-09-02T14:24:19;4.05;;;1.15;;
17886;SDS011;9069;52.044;7.472;2022-09-02T14:26:48;5.45;;;1.02;;
17886;SDS011;9069;52.044;7.472;2022-09-02T14:29:18;1.35;;;0.90;;
17886;SDS011;9069;52.044;7.472;2022-09-02T14:31:46;1.55;;;0.63;;
17886;SDS011;9069;52.044;7.472;2022-09-02T14:34:42;0.80;;;0.80;;
17886;SDS011;9069;52.044;7.472;2022-09-02T14:37:21;1.63;;;1.00;;
17886;SDS011;9069;52.044;7.472;2022-09-02T14:39:53;1.33;;;1.05;;
17886;SDS011;9069;52.044;7.472;2022-09-02T14:42:41;3.53;;;0.90;;
17886;SDS011;9069;52.044;7.472;2022-09-02T14:45:27;1.95;;;0.98;;
17886;SDS011;9069;52.044;7.472;2022-09-02T14:47:59;2.97;;;1.10;;
17886;SDS011;9069;52.044;7.472;2022-09-02T14:50:29;1.88;;;0.90;;
17886;SDS011;9069;52.044;7.472;2022-09-02T14:52:58;1.63;;;1.00;;
17886;SDS011;9069;52.044;7.472;2022-09-02T14:55:38;1.17;;;0.93;;
17886;SDS011;9069;52.044;7.472;2022-09-02T14:58:09;1.17;;;0.80;;
17886;SDS011;9069;52.044;7.472;2022-09-02T15:00:36;0.90;;;0.80;;
17886;SDS011;9069;52.044;7.472;2022-09-02T15:03:04;3.70;;;1.00;;
17886;SDS011;9069;52.044;7.472;2022-09-02T15:05:32;1.27;;;0.90;;
17886;SDS011;9069;52.044;7.472;2022-09-02T15:07:58;1.67;;;0.95;;
17886;SDS011;9069;52.044;7.472;2022-09-02T15:10:25;1.10;;;0.98;;
17886;SDS011;9069;52.044;7.472;2022-09-02T15:12:53;1.48;;;1.10;;
17886;SDS011;9069;52.044;7.472;2022-09-02T15:15:22;2.70;;;1.00;;
17886;SDS011;9069;52.044;7.472;2022-09-02T15:17:50;4.63;;;0.90;;
17886;SDS011;9069;52.044;7.472;2022-09-02T15:20:16;4.65;;;1.20;;
17886;SDS011;9069;52.044;7.472;2022-09-02T15:22:43;1.83;;;0.90;;
17886;SDS011;9069;52.044;7.472;2022-09-02T15:25:10;6.22;;;1.08;;
17886;SDS011;9069;52.044;7.472;2022-09-02T15:27:37;2.25;;;1.10;;
17886;SDS011;9069;52.044;7.472;2022-09-02T15:30:04;3.45;;;0.80;;
17886;SDS011;9069;52.044;7.472;2022-09-02T15:32:34;2.28;;;1.00;;
17886;SDS011;9069;52.044;7.472;2022-09-02T15:35:02;0.95;;;0.88;;
17886;SDS011;9069;52.044;7.472;2022-09-02T15:37:29;1.90;;;1.08;;
17886;SDS011;9069;52.044;7.472;2022-09-02T15:39:56;1.55;;;1.17;;
17886;SDS011;9069;52.044;7.472;2022-09-02T15:42:23;1.17;;;0.75;;
17886;SDS011;9069;52.044;7.472;2022-09-02T15:44:50;2.00;;;1.02;;
17886;SDS011;9069;52.044;7.472;2022-09-02T15:47:16;1.20;;;1.10;;
17886;SDS011;9069;52.044;7.472;2022-09-02T15:49:43;1.83;;;0.90;;
17886;SDS011;9069;52.044;7.472;2022-09-02T15:52:10;1.55;;;0.98;;
17886;SDS011;9069;52.044;7.472;2022-09-02T15:54:36;1.50;;;1.08;;
17886;SDS011;9069;52.044;7.472;2022-09-02T15:57:03;3.53;;;1.20;;
17886;SDS011;9069;52.044;7.472;2022-09-02T15:59:30;1.02;;;0.80;;
17886;SDS011;9069;52.044;7.472;2022-09-02T16:01:57;2.38;;;1.00;;
17886;SDS011;9069;52.044;7.472;2022-09-02T16:04:24;1.50;;;0.82;;
17886;SDS011;9069;52.044;7.472;2022-09-02T16:06:52;2.03;;;1.10;;
17886;SDS011;9069;52.044;7.472;2022-09-02T16:09:19;2.10;;;1.48;;
17886;SDS011;9069;52.044;7.472;2022-09-02T16:11:47;3.35;;;1.00;;
17886;SDS011;9069;52.044;7.472;2022-09-02T16:14:15;6.32;;;1.00;;
17886;SDS011;9069;52.044;7.472;2022-09-02T16:16:46;6.63;;;1.20;;
17886;SDS011;9069;52.044;7.472;2022-09-02T16:19:14;0.95;;;0.90;;
17886;SDS011;9069;52.044;7.472;2022-09-02T16:21:41;3.92;;;1.05;;
17886;SDS011;9069;52.044;7.472;2022-09-02T16:24:08;1.10;;;1.00;;
17886;SDS011;9069;52.044;7.472;2022-09-02T16:26:38;3.00;;;1.00;;
17886;SDS011;9069;52.044;7.472;2022-09-02T16:29:07;4.65;;;0.95;;
17886;SDS011;9069;52.044;7.472;2022-09-02T16:31:37;0.95;;;0.77;;
17886;SDS011;9069;52.044;7.472;2022-09-02T16:34:08;2.60;;;1.15;;
17886;SDS011;9069;52.044;7.472;2022-09-02T16:36:37;1.00;;;0.80;;
17886;SDS011;9069;52.044;7.472;2022-09-02T16:39:12;1.58;;;0.90;;
17886;SDS011;9069;52.044;7.472;2022-09-02T16:41:40;3.08;;;1.00;;
17886;SDS011;9069;52.044;7.472;2022-09-02T16:44:16;1.70;;;0.95;;
17886;SDS011;9069;52.044;7.472;2022-09-02T16:46:44;2.92;;;1.00;;
17886;SDS011;9069;52.044;7.472;2022-09-02T16:49:13;1.05;;;0.80;;
17886;SDS011;9069;52.044;7.472;2022-09-02T16:51:44;2.28;;;1.10;;
17886;SDS011;9069;52.044;7.472;2022-09-02T16:54:12;3.78;;;1.25;;
17886;SDS011;9069;52.044;7.472;2022-09-02T16:56:46;2.95;;;1.00;;
17886;SDS011;9069;52.044;7.472;2022-09-02T16:59:13;0.98;;;0.88;;
17886;SDS011;9069;52.044;7.472;2022-09-02T17:01:40;1.30;;;0.93;;
17886;SDS011;9069;52.044;7.472;2022-09-02T17:04:07;1.23;;;0.90;;
17886;SDS011;9069;52.044;7.472;2022-09-02T17:06:34;1.48;;;0.82;;
17886;SDS011;9069;52.044;7.472;2022-09-02T17:09:07;4.82;;;0.90;;
17886;SDS011;9069;52.044;7.472;2022-09-02T17:11:34;1.33;;;0.95;;
17886;SDS011;9069;52.044;7.472;2022-09-02T17:14:09;1.65;;;0.80;;
17886;SDS011;9069;52.044;7.472;2022-09-02T17:16:41;2.88;;;1.00;;
17886;SDS011;9069;52.044;7.472;2022-09-02T17:19:09;1.20;;;0.88;;
17886;SDS011;9069;52.044;7.472;2022-09-02T17:21:43;1.85;;;0.93;;
17886;SDS011;9069;52.044;7.472;2022-09-02T17:24:12;3.10;;;0.93;;
17886;SDS011;9069;52.044;7.472;2022-09-02T17:26:41;2.05;;;1.00;;
17886;SDS011;9069;52.044;7.472;2022-09-02T17:29:10;1.02;;;0.80;;
17886;SDS011;9069;52.044;7.472;2022-09-02T17:31:58;2.42;;;0.80;;
17886;SDS011;9069;52.044;7.472;2022-09-02T17:34:24;2.33;;;0.88;;